sensor_id;sensor_type;location;lat;lon;timestamp;P1;durP1;ratioP1;P2;durP2;ratioP2
64816;SDS011;53289;45.602;11.904;2023-02-22T00:00:43;130.48;;;60.33;;
64816;SDS011;53289;45.602;11.904;2023-02-22T00:03:31;127.72;;;59.47;;
64816;SDS011;53289;45.602;11.904;2023-02-22T00:06:03;118.60;;;54.80;;
64816;SDS011;53289;45.602;11.904;2023-02-22T00:11:01;110.85;;;52.30;;
64816;SDS011;53289;45.602;11.904;2023-02-22T00:13:35;114.28;;;50.53;;
64816;SDS011;53289;45.602;11.904;2023-02-22T00:16:02;119.68;;;54.35;;
64816;SDS011;53289;45.602;11.904;2023-02-22T00:18:29;135.25;;;61.80;;
64816;SDS011;53289;45.602;11.904;2023-02-22T00:20:55;125.38;;;54.53;;
64816;SDS011;53289;45.602;11.904;2023-02-22T00:23:24;123.15;;;55.95;;
64816;SDS011;53289;45.602;11.904;2023-02-22T00:25:52;105.40;;;50.38;;
64816;SDS011;53289;45.602;11.904;2023-02-22T00:28:19;105.72;;;53.67;;
64816;SDS011;53289;45.602;11.904;2023-02-22T00:30:48;146.48;;;68.13;;
64816;SDS011;53289;45.602;11.904;2023-02-22T00:33:15;118.70;;;53.20;;
64816;SDS011;53289;45.602;11.904;2023-02-22T00:35:41;116.95;;;53.65;;
64816;SDS011;53289;45.602;11.904;2023-02-22T00:38:12;125.43;;;57.63;;
64816;SDS011;53289;45.602;11.904;2023-02-22T00:40:40;119.15;;;54.17;;
64816;SDS011;53289;45.602;11.904;2023-02-22T00:43:06;95.25;;;48.63;;
64816;SDS011;53289;45.602;11.904;2023-02-22T00:45:33;81.47;;;44.40;;
64816;SDS011;53289;45.602;11.904;2023-02-22T00:48:00;99.60;;;50.97;;
64816;SDS011;53289;45.602;11.904;2023-02-22T00:50:27;92.70;;;47.80;;
64816;SDS011;53289;45.602;11.904;2023-02-22T00:52:55;107.72;;;48.95;;
64816;SDS011;53289;45.602;11.904;2023-02-22T00:55:23;128.98;;;54.55;;
64816;SDS011;53289;45.602;11.904;2023-02-22T00:57:51;119.28;;;52.63;;
64816;SDS011;53289;45.602;11.904;2023-02-22T01:00:19;97.82;;;45.33;;
64816;SDS011;53289;45.602;11.904;2023-02-22T01:02:51;116.65;;;52.97;;
64816;SDS011;53289;45.602;11.904;2023-02-22T01:05:19;102.25;;;50.28;;
64816;SDS011;53289;45.602;11.904;2023-02-22T01:07:47;99.25;;;49.20;;
64816;SDS011;53289;45.602;11.904;2023-02-22T01:10:14;97.10;;;48.35;;
64816;SDS011;53289;45.602;11.904;2023-02-22T01:12:43;103.88;;;47.92;;
64816;SDS011;53289;45.602;11.904;2023-02-22T01:15:10;97.60;;;47.08;;
64816;SDS011;53289;45.602;11.904;2023-02-22T01:17:37;104.93;;;49.67;;
64816;SDS011;53289;45.602;11.904;2023-02-22T01:20:05;92.50;;;48.65;;
64816;SDS011;53289;45.602;11.904;2023-02-22T01:22:39;83.40;;;43.38;;
64816;SDS011;53289;45.602;11.904;2023-02-22T01:25:10;94.70;;;45.75;;
64816;SDS011;53289;45.602;11.904;2023-02-22T01:27:40;98.93;;;48.08;;
64816;SDS011;53289;45.602;11.904;2023-02-22T01:30:06;100.90;;;48.75;;
64816;SDS011;53289;45.602;11.904;2023-02-22T01:32:36;93.22;;;48.55;;
64816;SDS011;53289;45.602;11.904;2023-02-22T01:35:05;108.22;;;49.67;;
64816;SDS011;53289;45.602;11.904;2023-02-22T01:37:35;93.68;;;47.58;;
64816;SDS011;53289;45.602;11.904;2023-02-22T01:40:03;91.47;;;46.22;;
64816;SDS011;53289;45.602;11.904;2023-02-22T01:42:33;96.47;;;48.58;;
64816;SDS011;53289;45.602;11.904;2023-02-22T01:48:05;93.32;;;47.92;;
64816;SDS011;53289;45.602;11.904;2023-02-22T01:56:26;92.82;;;46.80;;
64816;SDS011;53289;45.602;11.904;2023-02-22T01:58:58;97.88;;;47.15;;
64816;SDS011;53289;45.602;11.904;2023-02-22T02:01:27;96.53;;;46.22;;
64816;SDS011;53289;45.602;11.904;2023-02-22T02:03:55;88.32;;;46.60;;
64816;SDS011;53289;45.602;11.904;2023-02-22T02:06:24;97.80;;;47.65;;
64816;SDS011;53289;45.602;11.904;2023-02-22T02:14:05;89.13;;;44.67;;
64816;SDS011;53289;45.602;11.904;2023-02-22T02:16:39;93.53;;;47.30;;
64816;SDS011;53289;45.602;11.904;2023-02-22T02:19:14;87.10;;;45.55;;
64816;SDS011;53289;45.602;11.904;2023-02-22T02:22:22;103.65;;;48.30;;
64816;SDS011;53289;45.602;11.904;2023-02-22T02:25:00;97.75;;;47.13;;
64816;SDS011;53289;45.602;11.904;2023-02-22T02:33:32;110.20;;;47.88;;
64816;SDS011;53289;45.602;11.904;2023-02-22T02:36:09;90.15;;;45.38;;
64816;SDS011;53289;45.602;11.904;2023-02-22T02:38:41;82.15;;;43.45;;
64816;SDS011;53289;45.602;11.904;2023-02-22T02:41:23;84.55;;;43.30;;
64816;SDS011;53289;45.602;11.904;2023-02-22T02:44:06;98.87;;;47.73;;
64816;SDS011;53289;45.602;11.904;2023-02-22T02:46:44;96.28;;;46.15;;
64816;SDS011;53289;45.602;11.904;2023-02-22T02:49:22;96.15;;;46.13;;
64816;SDS011;53289;45.602;11.904;2023-02-22T02:51:53;118.80;;;56.05;;
64816;SDS011;53289;45.602;11.904;2023-02-22T02:54:22;115.57;;;55.15;;
64816;SDS011;53289;45.602;11.904;2023-02-22T02:56:49;108.28;;;53.13;;
64816;SDS011;53289;45.602;11.904;2023-02-22T02:59:25;107.72;;;48.83;;
64816;SDS011;53289;45.602;11.904;2023-02-22T03:07:19;109.93;;;47.67;;
64816;SDS011;53289;45.602;11.904;2023-02-22T03:12:47;116.97;;;53.42;;
64816;SDS011;53289;45.602;11.904;2023-02-22T03:18:01;106.53;;;50.83;;
64816;SDS011;53289;45.602;11.904;2023-02-22T03:20:30;107.65;;;48.95;;
64816;SDS011;53289;45.602;11.904;2023-02-22T03:23:13;99.43;;;46.88;;
64816;SDS011;53289;45.602;11.904;2023-02-22T03:26:10;97.68;;;46.85;;
64816;SDS011;53289;45.602;11.904;2023-02-22T03:28:40;92.03;;;47.15;;
64816;SDS011;53289;45.602;11.904;2023-02-22T03:31:21;97.00;;;44.78;;
64816;SDS011;53289;45.602;11.904;2023-02-22T03:33:54;135.38;;;60.47;;
64816;SDS011;53289;45.602;11.904;2023-02-22T03:36:32;107.82;;;51.40;;
64816;SDS011;53289;45.602;11.904;2023-02-22T03:39:03;115.28;;;55.35;;
64816;SDS011;53289;45.602;11.904;2023-02-22T03:41:32;92.97;;;45.42;;
64816;SDS011;53289;45.602;11.904;2023-02-22T03:44:04;103.28;;;47.63;;
64816;SDS011;53289;45.602;11.904;2023-02-22T03:46:38;93.75;;;44.28;;
64816;SDS011;53289;45.602;11.904;2023-02-22T03:49:20;93.40;;;45.72;;
64816;SDS011;53289;45.602;11.904;2023-02-22T03:51:59;90.13;;;45.70;;
64816;SDS011;53289;45.602;11.904;2023-02-22T03:54:27;102.18;;;49.35;;
64816;SDS011;53289;45.602;11.904;2023-02-22T03:56:55;83.97;;;44.30;;
64816;SDS011;53289;45.602;11.904;2023-02-22T03:59:24;91.40;;;44.65;;
64816;SDS011;53289;45.602;11.904;2023-02-22T04:01:55;88.63;;;45.05;;
64816;SDS011;53289;45.602;11.904;2023-02-22T04:04:21;80.38;;;41.97;;
64816;SDS011;53289;45.602;11.904;2023-02-22T04:06:48;80.82;;;41.67;;
64816;SDS011;53289;45.602;11.904;2023-02-22T04:09:15;88.15;;;45.53;;
64816;SDS011;53289;45.602;11.904;2023-02-22T04:11:42;89.68;;;46.22;;
64816;SDS011;53289;45.602;11.904;2023-02-22T04:14:07;104.22;;;43.45;;
64816;SDS011;53289;45.602;11.904;2023-02-22T04:16:33;83.82;;;44.42;;
64816;SDS011;53289;45.602;11.904;2023-02-22T04:19:00;92.88;;;45.30;;
64816;SDS011;53289;45.602;11.904;2023-02-22T04:21:25;85.70;;;43.22;;
64816;SDS011;53289;45.602;11.904;2023-02-22T04:23:51;93.78;;;45.75;;
64816;SDS011;53289;45.602;11.904;2023-02-22T04:26:17;93.05;;;46.63;;
64816;SDS011;53289;45.602;11.904;2023-02-22T04:28:43;105.25;;;47.38;;
64816;SDS011;53289;45.602;11.904;2023-02-22T04:31:08;93.40;;;46.08;;
64816;SDS011;53289;45.602;11.904;2023-02-22T04:33:34;107.03;;;48.55;;
64816;SDS011;53289;45.602;11.904;2023-02-22T04:36:00;129.25;;;54.45;;
64816;SDS011;53289;45.602;11.904;2023-02-22T04:38:26;118.22;;;49.88;;
64816;SDS011;53289;45.602;11.904;2023-02-22T04:40:53;123.80;;;54.90;;
64816;SDS011;53289;45.602;11.904;2023-02-22T04:43:19;130.02;;;61.83;;
64816;SDS011;53289;45.602;11.904;2023-02-22T04:45:46;131.35;;;60.30;;
64816;SDS011;53289;45.602;11.904;2023-02-22T04:48:11;132.45;;;58.35;;
64816;SDS011;53289;45.602;11.904;2023-02-22T04:50:37;110.15;;;51.17;;
64816;SDS011;53289;45.602;11.904;2023-02-22T04:53:04;107.35;;;50.97;;
64816;SDS011;53289;45.602;11.904;2023-02-22T04:55:30;100.57;;;48.03;;
64816;SDS011;53289;45.602;11.904;2023-02-22T04:57:56;102.55;;;49.28;;
64816;SDS011;53289;45.602;11.904;2023-02-22T05:00:22;98.53;;;49.22;;
64816;SDS011;53289;45.602;11.904;2023-02-22T05:02:48;83.15;;;44.00;;
64816;SDS011;53289;45.602;11.904;2023-02-22T05:05:18;82.47;;;42.45;;
64816;SDS011;53289;45.602;11.904;2023-02-22T05:07:46;100.55;;;46.25;;
64816;SDS011;53289;45.602;11.904;2023-02-22T05:10:13;86.72;;;44.60;;
64816;SDS011;53289;45.602;11.904;2023-02-22T05:12:39;97.70;;;44.88;;
64816;SDS011;53289;45.602;11.904;2023-02-22T05:15:05;92.07;;;45.38;;
64816;SDS011;53289;45.602;11.904;2023-02-22T05:17:32;79.68;;;41.33;;
64816;SDS011;53289;45.602;11.904;2023-02-22T05:19:59;88.95;;;43.28;;
64816;SDS011;53289;45.602;11.904;2023-02-22T05:22:25;91.50;;;45.47;;
64816;SDS011;53289;45.602;11.904;2023-02-22T05:24:51;99.40;;;44.97;;
64816;SDS011;53289;45.602;11.904;2023-02-22T05:27:17;82.35;;;42.17;;
64816;SDS011;53289;45.602;11.904;2023-02-22T05:29:43;95.00;;;47.05;;
64816;SDS011;53289;45.602;11.904;2023-02-22T05:32:09;124.00;;;54.30;;
64816;SDS011;53289;45.602;11.904;2023-02-22T05:34:38;124.80;;;59.30;;
64816;SDS011;53289;45.602;11.904;2023-02-22T05:37:04;119.72;;;57.58;;
64816;SDS011;53289;45.602;11.904;2023-02-22T05:39:31;93.28;;;46.90;;
64816;SDS011;53289;45.602;11.904;2023-02-22T05:41:57;128.35;;;61.53;;
64816;SDS011;53289;45.602;11.904;2023-02-22T05:44:23;129.95;;;60.60;;
64816;SDS011;53289;45.602;11.904;2023-02-22T05:46:49;126.60;;;60.58;;
64816;SDS011;53289;45.602;11.904;2023-02-22T05:49:15;131.35;;;61.47;;
64816;SDS011;53289;45.602;11.904;2023-02-22T05:51:41;120.03;;;56.95;;
64816;SDS011;53289;45.602;11.904;2023-02-22T05:54:07;117.60;;;56.97;;
64816;SDS011;53289;45.602;11.904;2023-02-22T05:56:32;121.80;;;55.15;;
64816;SDS011;53289;45.602;11.904;2023-02-22T05:58:58;126.63;;;58.45;;
64816;SDS011;53289;45.602;11.904;2023-02-22T06:01:25;106.72;;;52.83;;
64816;SDS011;53289;45.602;11.904;2023-02-22T06:03:51;133.55;;;62.03;;
64816;SDS011;53289;45.602;11.904;2023-02-22T06:06:17;103.82;;;51.38;;
64816;SDS011;53289;45.602;11.904;2023-02-22T06:08:44;97.50;;;48.13;;
64816;SDS011;53289;45.602;11.904;2023-02-22T06:11:11;112.57;;;51.10;;
64816;SDS011;53289;45.602;11.904;2023-02-22T06:13:37;100.32;;;48.83;;
64816;SDS011;53289;45.602;11.904;2023-02-22T06:16:04;91.68;;;44.92;;
64816;SDS011;53289;45.602;11.904;2023-02-22T06:18:30;95.53;;;46.63;;
64816;SDS011;53289;45.602;11.904;2023-02-22T06:20:57;86.53;;;43.67;;
64816;SDS011;53289;45.602;11.904;2023-02-22T06:23:23;103.35;;;47.78;;
64816;SDS011;53289;45.602;11.904;2023-02-22T06:25:49;91.15;;;46.65;;
64816;SDS011;53289;45.602;11.904;2023-02-22T06:28:15;96.78;;;45.10;;
64816;SDS011;53289;45.602;11.904;2023-02-22T06:30:41;94.35;;;46.65;;
64816;SDS011;53289;45.602;11.904;2023-02-22T06:33:08;82.28;;;41.33;;
64816;SDS011;53289;45.602;11.904;2023-02-22T06:35:35;126.03;;;53.50;;
64816;SDS011;53289;45.602;11.904;2023-02-22T06:38:00;107.65;;;49.63;;
64816;SDS011;53289;45.602;11.904;2023-02-22T06:40:27;98.30;;;47.58;;
64816;SDS011;53289;45.602;11.904;2023-02-22T06:42:54;88.90;;;46.75;;
64816;SDS011;53289;45.602;11.904;2023-02-22T06:45:20;99.05;;;48.30;;
64816;SDS011;53289;45.602;11.904;2023-02-22T06:47:46;100.22;;;48.20;;
64816;SDS011;53289;45.602;11.904;2023-02-22T06:50:19;97.38;;;46.97;;
64816;SDS011;53289;45.602;11.904;2023-02-22T06:52:55;90.25;;;44.15;;
64816;SDS011;53289;45.602;11.904;2023-02-22T06:55:23;121.70;;;56.08;;
64816;SDS011;53289;45.602;11.904;2023-02-22T06:57:50;88.68;;;45.65;;
64816;SDS011;53289;45.602;11.904;2023-02-22T07:00:17;94.72;;;47.78;;
64816;SDS011;53289;45.602;11.904;2023-02-22T07:02:44;88.38;;;45.97;;
64816;SDS011;53289;45.602;11.904;2023-02-22T07:05:12;89.45;;;48.38;;
64816;SDS011;53289;45.602;11.904;2023-02-22T07:07:39;101.43;;;48.90;;
64816;SDS011;53289;45.602;11.904;2023-02-22T07:10:06;88.72;;;45.92;;
64816;SDS011;53289;45.602;11.904;2023-02-22T07:12:33;96.20;;;44.53;;
64816;SDS011;53289;45.602;11.904;2023-02-22T07:14:59;105.50;;;48.45;;
64816;SDS011;53289;45.602;11.904;2023-02-22T07:17:25;89.65;;;45.75;;
64816;SDS011;53289;45.602;11.904;2023-02-22T07:19:51;95.72;;;48.40;;
64816;SDS011;53289;45.602;11.904;2023-02-22T07:22:17;77.85;;;41.20;;
64816;SDS011;53289;45.602;11.904;2023-02-22T07:24:43;86.72;;;44.38;;
64816;SDS011;53289;45.602;11.904;2023-02-22T07:27:09;91.50;;;46.85;;
64816;SDS011;53289;45.602;11.904;2023-02-22T07:29:35;77.85;;;43.00;;
64816;SDS011;53289;45.602;11.904;2023-02-22T07:32:01;83.22;;;44.42;;
64816;SDS011;53289;45.602;11.904;2023-02-22T07:34:27;94.20;;;47.67;;
64816;SDS011;53289;45.602;11.904;2023-02-22T07:36:53;92.07;;;45.25;;
64816;SDS011;53289;45.602;11.904;2023-02-22T07:39:19;83.20;;;43.30;;
64816;SDS011;53289;45.602;11.904;2023-02-22T07:41:45;80.85;;;45.22;;
64816;SDS011;53289;45.602;11.904;2023-02-22T07:44:10;87.28;;;45.35;;
64816;SDS011;53289;45.602;11.904;2023-02-22T07:46:37;121.70;;;58.00;;
64816;SDS011;53289;45.602;11.904;2023-02-22T07:49:03;106.85;;;51.08;;
64816;SDS011;53289;45.602;11.904;2023-02-22T07:51:29;115.72;;;52.80;;
64816;SDS011;53289;45.602;11.904;2023-02-22T07:53:55;99.25;;;49.67;;
64816;SDS011;53289;45.602;11.904;2023-02-22T07:56:20;106.22;;;48.75;;
64816;SDS011;53289;45.602;11.904;2023-02-22T07:58:46;132.00;;;62.38;;
64816;SDS011;53289;45.602;11.904;2023-02-22T08:01:12;106.18;;;54.47;;
64816;SDS011;53289;45.602;11.904;2023-02-22T08:03:38;115.28;;;54.72;;
64816;SDS011;53289;45.602;11.904;2023-02-22T08:06:05;136.75;;;65.32;;
64816;SDS011;53289;45.602;11.904;2023-02-22T08:08:31;112.72;;;54.83;;
64816;SDS011;53289;45.602;11.904;2023-02-22T08:10:58;107.03;;;54.08;;
64816;SDS011;53289;45.602;11.904;2023-02-22T08:13:24;128.77;;;61.88;;
64816;SDS011;53289;45.602;11.904;2023-02-22T08:15:53;142.77;;;69.85;;
64816;SDS011;53289;45.602;11.904;2023-02-22T08:18:20;132.80;;;64.45;;
64816;SDS011;53289;45.602;11.904;2023-02-22T08:20:48;129.32;;;60.38;;
64816;SDS011;53289;45.602;11.904;2023-02-22T08:23:16;127.88;;;59.47;;
64816;SDS011;53289;45.602;11.904;2023-02-22T08:25:44;128.00;;;59.60;;
64816;SDS011;53289;45.602;11.904;2023-02-22T08:28:10;129.30;;;59.75;;
64816;SDS011;53289;45.602;11.904;2023-02-22T08:30:38;120.47;;;59.22;;
64816;SDS011;53289;45.602;11.904;2023-02-22T08:33:06;117.63;;;56.00;;
64816;SDS011;53289;45.602;11.904;2023-02-22T08:35:32;116.53;;;55.30;;
64816;SDS011;53289;45.602;11.904;2023-02-22T08:38:02;120.60;;;59.35;;
64816;SDS011;53289;45.602;11.904;2023-02-22T08:40:31;118.65;;;57.70;;
64816;SDS011;53289;45.602;11.904;2023-02-22T08:42:59;110.57;;;53.90;;
64816;SDS011;53289;45.602;11.904;2023-02-22T08:45:25;115.43;;;56.65;;
64816;SDS011;53289;45.602;11.904;2023-02-22T08:47:52;102.53;;;49.72;;
64816;SDS011;53289;45.602;11.904;2023-02-22T08:52:57;101.45;;;49.60;;
64816;SDS011;53289;45.602;11.904;2023-02-22T08:55:26;113.40;;;53.85;;
64816;SDS011;53289;45.602;11.904;2023-02-22T08:57:54;93.50;;;48.05;;
64816;SDS011;53289;45.602;11.904;2023-02-22T15:29:46;81.78;;;38.63;;
64816;SDS011;53289;45.602;11.904;2023-02-22T15:32:19;88.35;;;39.15;;
64816;SDS011;53289;45.602;11.904;2023-02-22T15:35:13;83.63;;;38.63;;
64816;SDS011;53289;45.602;11.904;2023-02-22T15:37:41;80.97;;;37.03;;
64816;SDS011;53289;45.602;11.904;2023-02-22T15:40:15;81.10;;;39.15;;
64816;SDS011;53289;45.602;11.904;2023-02-22T15:42:44;86.03;;;40.13;;
64816;SDS011;53289;45.602;11.904;2023-02-22T15:45:13;85.55;;;39.75;;
64816;SDS011;53289;45.602;11.904;2023-02-22T15:47:49;88.28;;;40.90;;
64816;SDS011;53289;45.602;11.904;2023-02-22T15:50:31;83.05;;;39.72;;
64816;SDS011;53289;45.602;11.904;2023-02-22T15:55:29;89.68;;;41.17;;
64816;SDS011;53289;45.602;11.904;2023-02-22T15:58:08;82.72;;;39.30;;
64816;SDS011;53289;45.602;11.904;2023-02-22T16:00:37;89.25;;;41.28;;
64816;SDS011;53289;45.602;11.904;2023-02-22T16:03:07;86.47;;;40.50;;
64816;SDS011;53289;45.602;11.904;2023-02-22T16:05:46;82.60;;;40.15;;
64816;SDS011;53289;45.602;11.904;2023-02-22T16:08:21;82.18;;;38.30;;
64816;SDS011;53289;45.602;11.904;2023-02-22T16:10:59;82.90;;;39.00;;
64816;SDS011;53289;45.602;11.904;2023-02-22T16:13:29;80.80;;;38.15;;
64816;SDS011;53289;45.602;11.904;2023-02-22T16:18:35;79.82;;;36.75;;
64816;SDS011;53289;45.602;11.904;2023-02-22T16:21:07;77.32;;;36.83;;
64816;SDS011;53289;45.602;11.904;2023-02-22T16:26:25;79.75;;;37.15;;
64816;SDS011;53289;45.602;11.904;2023-02-22T16:29:01;68.38;;;33.58;;
64816;SDS011;53289;45.602;11.904;2023-02-22T16:31:31;75.88;;;34.90;;
64816;SDS011;53289;45.602;11.904;2023-02-22T16:33:59;67.90;;;32.60;;
64816;SDS011;53289;45.602;11.904;2023-02-22T16:36:42;69.40;;;34.50;;
64816;SDS011;53289;45.602;11.904;2023-02-22T16:39:13;72.05;;;32.10;;
64816;SDS011;53289;45.602;11.904;2023-02-22T16:41:46;72.30;;;35.60;;
64816;SDS011;53289;45.602;11.904;2023-02-22T16:44:12;74.88;;;34.10;;
64816;SDS011;53289;45.602;11.904;2023-02-22T16:46:39;80.38;;;36.17;;
64816;SDS011;53289;45.602;11.904;2023-02-22T16:49:07;74.35;;;34.60;;
64816;SDS011;53289;45.602;11.904;2023-02-22T16:51:39;70.15;;;34.05;;
64816;SDS011;53289;45.602;11.904;2023-02-22T16:54:11;70.82;;;32.75;;
64816;SDS011;53289;45.602;11.904;2023-02-22T16:56:39;65.30;;;32.40;;
64816;SDS011;53289;45.602;11.904;2023-02-22T16:59:12;73.95;;;34.03;;
64816;SDS011;53289;45.602;11.904;2023-02-22T17:01:40;75.53;;;36.20;;
64816;SDS011;53289;45.602;11.904;2023-02-22T17:04:13;73.45;;;34.83;;
64816;SDS011;53289;45.602;11.904;2023-02-22T17:06:50;69.00;;;33.42;;
64816;SDS011;53289;45.602;11.904;2023-02-22T17:09:17;71.40;;;37.25;;
64816;SDS011;53289;45.602;11.904;2023-02-22T17:11:44;65.55;;;33.20;;
64816;SDS011;53289;45.602;11.904;2023-02-22T17:14:16;73.55;;;36.65;;
64816;SDS011;53289;45.602;11.904;2023-02-22T17:16:50;74.57;;;36.58;;
64816;SDS011;53289;45.602;11.904;2023-02-22T17:19:16;65.32;;;31.90;;
64816;SDS011;53289;45.602;11.904;2023-02-22T17:21:44;63.40;;;31.13;;
64816;SDS011;53289;45.602;11.904;2023-02-22T17:24:11;71.40;;;34.00;;
64816;SDS011;53289;45.602;11.904;2023-02-22T17:26:39;73.07;;;33.53;;
64816;SDS011;53289;45.602;11.904;2023-02-22T17:29:05;75.88;;;37.72;;
64816;SDS011;53289;45.602;11.904;2023-02-22T17:31:31;103.68;;;47.25;;
64816;SDS011;53289;45.602;11.904;2023-02-22T17:33:59;76.80;;;38.30;;
64816;SDS011;53289;45.602;11.904;2023-02-22T17:36:27;81.55;;;39.13;;
64816;SDS011;53289;45.602;11.904;2023-02-22T17:38:54;66.15;;;35.72;;
64816;SDS011;53289;45.602;11.904;2023-02-22T17:41:20;65.38;;;35.25;;
64816;SDS011;53289;45.602;11.904;2023-02-22T17:43:45;73.18;;;38.38;;
64816;SDS011;53289;45.602;11.904;2023-02-22T17:46:11;70.00;;;35.53;;
64816;SDS011;53289;45.602;11.904;2023-02-22T17:48:38;70.88;;;35.05;;
64816;SDS011;53289;45.602;11.904;2023-02-22T17:51:05;79.57;;;39.35;;
64816;SDS011;53289;45.602;11.904;2023-02-22T17:53:32;72.20;;;36.40;;
64816;SDS011;53289;45.602;11.904;2023-02-22T17:55:58;79.05;;;37.95;;
64816;SDS011;53289;45.602;11.904;2023-02-22T17:58:33;80.05;;;37.10;;
64816;SDS011;53289;45.602;11.904;2023-02-22T18:00:59;66.40;;;35.15;;
64816;SDS011;53289;45.602;11.904;2023-02-22T18:03:25;77.20;;;35.83;;
64816;SDS011;53289;45.602;11.904;2023-02-22T18:05:52;66.57;;;32.08;;
64816;SDS011;53289;45.602;11.904;2023-02-22T18:08:22;77.72;;;34.53;;
64816;SDS011;53289;45.602;11.904;2023-02-22T18:10:49;59.75;;;31.45;;
64816;SDS011;53289;45.602;11.904;2023-02-22T18:13:20;65.63;;;32.58;;
64816;SDS011;53289;45.602;11.904;2023-02-22T18:15:47;59.50;;;32.17;;
64816;SDS011;53289;45.602;11.904;2023-02-22T18:18:14;65.93;;;32.63;;
64816;SDS011;53289;45.602;11.904;2023-02-22T18:20:42;69.72;;;32.97;;
64816;SDS011;53289;45.602;11.904;2023-02-22T18:23:14;70.22;;;34.55;;
64816;SDS011;53289;45.602;11.904;2023-02-22T18:25:47;73.25;;;35.28;;
64816;SDS011;53289;45.602;11.904;2023-02-22T18:28:15;71.43;;;34.10;;
64816;SDS011;53289;45.602;11.904;2023-02-22T18:30:43;60.85;;;30.52;;
64816;SDS011;53289;45.602;11.904;2023-02-22T18:33:09;65.05;;;32.28;;
64816;SDS011;53289;45.602;11.904;2023-02-22T18:35:39;70.97;;;34.65;;
64816;SDS011;53289;45.602;11.904;2023-02-22T18:38:09;68.88;;;34.03;;
64816;SDS011;53289;45.602;11.904;2023-02-22T18:41:09;81.65;;;40.72;;
64816;SDS011;53289;45.602;11.904;2023-02-22T18:46:17;76.40;;;35.20;;
64816;SDS011;53289;45.602;11.904;2023-02-22T18:48:47;85.53;;;39.10;;
64816;SDS011;53289;45.602;11.904;2023-02-22T18:51:19;74.43;;;35.65;;
64816;SDS011;53289;45.602;11.904;2023-02-22T18:53:45;70.18;;;33.10;;
64816;SDS011;53289;45.602;11.904;2023-02-22T18:56:17;71.50;;;34.03;;
64816;SDS011;53289;45.602;11.904;2023-02-22T18:58:46;60.92;;;32.22;;
64816;SDS011;53289;45.602;11.904;2023-02-22T19:01:16;79.13;;;37.70;;
64816;SDS011;53289;45.602;11.904;2023-02-22T19:03:43;66.25;;;34.35;;
64816;SDS011;53289;45.602;11.904;2023-02-22T19:06:11;83.47;;;40.22;;
64816;SDS011;53289;45.602;11.904;2023-02-22T19:08:39;95.85;;;45.28;;
64816;SDS011;53289;45.602;11.904;2023-02-22T19:11:10;77.35;;;37.15;;
64816;SDS011;53289;45.602;11.904;2023-02-22T19:13:42;66.40;;;34.58;;
64816;SDS011;53289;45.602;11.904;2023-02-22T19:16:12;66.82;;;35.03;;
64816;SDS011;53289;45.602;11.904;2023-02-22T19:18:39;70.55;;;35.78;;
64816;SDS011;53289;45.602;11.904;2023-02-22T19:21:08;71.32;;;36.53;;
64816;SDS011;53289;45.602;11.904;2023-02-22T19:23:35;75.38;;;35.30;;
64816;SDS011;53289;45.602;11.904;2023-02-22T19:26:09;92.25;;;43.22;;
64816;SDS011;53289;45.602;11.904;2023-02-22T19:28:36;94.68;;;42.08;;
64816;SDS011;53289;45.602;11.904;2023-02-22T19:31:10;85.72;;;39.22;;
64816;SDS011;53289;45.602;11.904;2023-02-22T19:33:36;94.68;;;42.10;;
64816;SDS011;53289;45.602;11.904;2023-02-22T19:36:02;96.32;;;44.47;;
64816;SDS011;53289;45.602;11.904;2023-02-22T19:38:28;89.63;;;42.10;;
64816;SDS011;53289;45.602;11.904;2023-02-22T19:40:54;100.68;;;46.60;;
64816;SDS011;53289;45.602;11.904;2023-02-22T19:43:20;81.85;;;41.08;;
64816;SDS011;53289;45.602;11.904;2023-02-22T19:45:46;68.38;;;35.15;;
64816;SDS011;53289;45.602;11.904;2023-02-22T19:48:12;94.20;;;43.92;;
64816;SDS011;53289;45.602;11.904;2023-02-22T19:50:39;100.72;;;45.40;;
64816;SDS011;53289;45.602;11.904;2023-02-22T19:53:13;76.63;;;40.13;;
64816;SDS011;53289;45.602;11.904;2023-02-22T19:55:40;87.15;;;42.80;;
64816;SDS011;53289;45.602;11.904;2023-02-22T19:58:06;80.03;;;41.50;;
64816;SDS011;53289;45.602;11.904;2023-02-22T20:00:35;75.88;;;39.55;;
64816;SDS011;53289;45.602;11.904;2023-02-22T20:03:01;94.70;;;43.53;;
64816;SDS011;53289;45.602;11.904;2023-02-22T20:05:31;84.13;;;39.92;;
64816;SDS011;53289;45.602;11.904;2023-02-22T20:07:57;86.05;;;41.95;;
64816;SDS011;53289;45.602;11.904;2023-02-22T20:10:24;101.50;;;47.70;;
64816;SDS011;53289;45.602;11.904;2023-02-22T20:12:50;92.85;;;42.00;;
64816;SDS011;53289;45.602;11.904;2023-02-22T20:15:16;83.88;;;40.75;;
64816;SDS011;53289;45.602;11.904;2023-02-22T20:17:42;87.82;;;43.67;;
64816;SDS011;53289;45.602;11.904;2023-02-22T20:20:14;86.18;;;39.72;;
64816;SDS011;53289;45.602;11.904;2023-02-22T20:22:41;110.45;;;51.33;;
64816;SDS011;53289;45.602;11.904;2023-02-22T20:25:09;92.57;;;44.03;;
64816;SDS011;53289;45.602;11.904;2023-02-22T20:27:35;94.55;;;45.38;;
64816;SDS011;53289;45.602;11.904;2023-02-22T20:30:02;110.43;;;50.50;;
64816;SDS011;53289;45.602;11.904;2023-02-22T20:32:28;84.18;;;40.45;;
64816;SDS011;53289;45.602;11.904;2023-02-22T20:34:56;82.15;;;40.72;;
64816;SDS011;53289;45.602;11.904;2023-02-22T20:37:22;93.72;;;41.25;;
64816;SDS011;53289;45.602;11.904;2023-02-22T20:39:51;76.13;;;37.70;;
64816;SDS011;53289;45.602;11.904;2023-02-22T20:42:17;90.25;;;43.53;;
64816;SDS011;53289;45.602;11.904;2023-02-22T20:44:42;86.43;;;41.05;;
64816;SDS011;53289;45.602;11.904;2023-02-22T20:47:09;82.28;;;41.00;;
64816;SDS011;53289;45.602;11.904;2023-02-22T20:49:35;78.13;;;40.70;;
64816;SDS011;53289;45.602;11.904;2023-02-22T20:52:01;90.95;;;46.22;;
64816;SDS011;53289;45.602;11.904;2023-02-22T20:54:27;81.35;;;41.38;;
64816;SDS011;53289;45.602;11.904;2023-02-22T20:56:53;111.45;;;48.35;;
64816;SDS011;53289;45.602;11.904;2023-02-22T20:59:19;99.50;;;46.58;;
64816;SDS011;53289;45.602;11.904;2023-02-22T21:01:45;118.70;;;54.72;;
64816;SDS011;53289;45.602;11.904;2023-02-22T21:04:13;92.70;;;44.13;;
64816;SDS011;53289;45.602;11.904;2023-02-22T21:06:40;105.40;;;47.95;;
64816;SDS011;53289;45.602;11.904;2023-02-22T21:09:07;92.78;;;46.90;;
64816;SDS011;53289;45.602;11.904;2023-02-22T21:11:37;100.53;;;48.22;;
64816;SDS011;53289;45.602;11.904;2023-02-22T21:14:04;99.35;;;49.13;;
64816;SDS011;53289;45.602;11.904;2023-02-22T21:16:31;89.88;;;45.75;;
64816;SDS011;53289;45.602;11.904;2023-02-22T21:19:00;105.55;;;50.63;;
64816;SDS011;53289;45.602;11.904;2023-02-22T21:21:28;96.72;;;48.03;;
64816;SDS011;53289;45.602;11.904;2023-02-22T21:23:55;96.90;;;48.45;;
64816;SDS011;53289;45.602;11.904;2023-02-22T21:26:26;98.50;;;46.75;;
64816;SDS011;53289;45.602;11.904;2023-02-22T21:28:57;101.85;;;51.25;;